createdAt,value
2018-06-04T00:04:20.056Z,3.59
2018-06-04T00:10:15.057Z,4.16
2018-06-04T00:16:10.057Z,3.45
2018-06-04T00:22:05.065Z,3.38
2018-06-04T00:28:00.086Z,3.66
2018-06-04T00:33:55.029Z,3.56
2018-06-04T00:39:50.081Z,3.75
2018-06-04T00:45:45.068Z,3.89
2018-06-04T00:51:40.072Z,4.23
2018-06-04T00:57:35.084Z,4.05
2018-06-04T01:03:30.074Z,4.14
2018-06-04T01:09:25.097Z,4.95
2018-06-04T01:15:20.095Z,4.22
2018-06-04T01:21:15.132Z,4.2
2018-06-04T01:27:10.118Z,4.24
2018-06-04T01:33:05.141Z,5.12
2018-06-04T01:39:00.152Z,5.27
2018-06-04T01:44:55.081Z,4.45
2018-06-04T01:50:50.128Z,4.37
2018-06-04T01:56:45.093Z,4.34
2018-06-04T02:02:40.162Z,4.24
2018-06-04T02:08:35.112Z,4.26
2018-06-04T02:14:30.198Z,4.61
2018-06-04T02:20:25.187Z,4.33
2018-06-04T02:26:20.131Z,4.76
2018-06-04T02:32:15.171Z,4.92
2018-06-04T02:38:10.120Z,4.55
2018-06-04T02:44:05.161Z,4.57
2018-06-04T02:50:00.274Z,4.82
2018-06-04T02:55:55.138Z,4.07
2018-06-04T03:01:50.267Z,3.8
2018-06-04T03:07:45.167Z,3.9
2018-06-04T03:13:40.141Z,4.35
2018-06-04T03:19:35.246Z,4.9
2018-06-04T03:25:30.192Z,5.23
2018-06-04T03:31:25.175Z,4.47
2018-06-04T03:37:20.207Z,5.07
2018-06-04T03:43:15.186Z,4.76
2018-06-04T03:49:10.183Z,4.4
2018-06-04T03:55:05.215Z,4.45
2018-06-04T04:01:00.186Z,4.7
2018-06-04T04:06:55.200Z,4.27
2018-06-04T04:12:50.207Z,4.28
2018-06-04T04:18:45.179Z,5.09
2018-06-04T04:24:40.213Z,4.52
2018-06-04T04:30:35.271Z,4.07
2018-06-04T04:36:30.210Z,4.94
2018-06-04T04:42:25.206Z,4.53
2018-06-04T04:48:20.268Z,5.31
2018-06-04T04:54:15.226Z,6.1
2018-06-04T05:00:10.511Z,4.93
2018-06-04T05:06:05.225Z,5.38
2018-06-04T05:12:00.241Z,5.82
2018-06-04T05:17:55.229Z,5.87
2018-06-04T05:23:50.371Z,5.93
2018-06-04T05:29:45.264Z,6.59
2018-06-04T05:35:40.251Z,6.48
2018-06-04T05:41:35.246Z,7.18
2018-06-04T05:47:30.271Z,7.14
2018-06-04T05:53:25.271Z,6.52
2018-06-04T05:59:20.251Z,6.58
2018-06-04T06:05:15.284Z,7.45
2018-06-04T06:11:10.246Z,6.72
2018-06-04T06:17:05.395Z,5.73
2018-06-04T06:23:00.279Z,5.68
2018-06-04T06:28:55.387Z,5.79
2018-06-04T06:34:50.276Z,5.89
2018-06-04T06:40:45.307Z,5.35
2018-06-04T06:46:40.295Z,6.12
2018-06-04T06:52:35.369Z,5.32
2018-06-04T06:58:30.323Z,4.91
2018-06-04T07:04:25.425Z,4.91
2018-06-04T07:10:20.308Z,5.17
2018-06-04T07:16:15.362Z,4.6
2018-06-04T07:22:10.287Z,3.89
2018-06-04T07:28:05.342Z,4.16
2018-06-04T07:34:00.344Z,3.53
2018-06-04T07:39:55.334Z,3.83
2018-06-04T07:45:50.311Z,3.67
2018-06-04T07:51:45.351Z,3.56
2018-06-04T07:57:40.384Z,3.78
2018-06-04T08:03:35.384Z,3.23
2018-06-04T08:09:30.372Z,3.1
2018-06-04T08:15:25.385Z,3.54
2018-06-04T08:21:20.360Z,3.6
2018-06-04T08:27:15.375Z,3.19
2018-06-04T08:33:10.406Z,3.22
2018-06-04T08:39:05.378Z,3.12
2018-06-04T08:45:00.357Z,3.55
2018-06-04T08:50:55.448Z,3.21
2018-06-04T08:56:50.566Z,3.16
2018-06-04T09:02:45.407Z,3.36
2018-06-04T09:08:40.418Z,3.5
2018-06-04T09:14:35.422Z,3.83
2018-06-04T09:20:30.508Z,4.16
2018-06-04T09:26:25.454Z,3.69
2018-06-04T09:32:20.512Z,4.42
2018-06-04T09:38:15.408Z,3.79
2018-06-04T09:44:10.400Z,4.18
2018-06-04T09:50:05.453Z,3.87
2018-06-04T09:56:00.447Z,3.87
2018-06-04T10:01:55.446Z,3.7
2018-06-04T10:07:50.523Z,3.88
2018-06-04T10:13:46.260Z,4.48
2018-06-04T10:19:40.454Z,4.08
2018-06-04T10:25:35.678Z,3.97
2018-06-04T10:31:30.467Z,4.24
2018-06-04T10:37:25.586Z,4.45
2018-06-04T10:43:20.645Z,3.4
2018-06-04T10:49:15.544Z,3.7
2018-06-04T10:55:10.818Z,3.45
2018-06-04T11:01:05.776Z,3.71
2018-06-04T11:07:00.690Z,3.72
2018-06-04T11:12:55.523Z,4.07
2018-06-04T11:18:50.513Z,3.77
2018-06-04T11:24:45.522Z,3.82
2018-06-04T11:30:40.513Z,3.98
2018-06-04T11:36:35.518Z,3.99
2018-06-04T11:42:30.530Z,3.8
2018-06-04T11:48:25.530Z,4.24
2018-06-04T11:54:20.501Z,4.11
2018-06-04T12:00:15.545Z,4.01
2018-06-04T12:06:10.557Z,3.96
2018-06-04T12:12:05.516Z,4.14
2018-06-04T12:18:00.558Z,3.84
2018-06-04T12:23:55.542Z,4.09
2018-06-04T12:29:50.611Z,4.16
2018-06-04T12:35:45.561Z,4.1
2018-06-04T12:41:40.591Z,5.5
2018-06-04T12:47:35.549Z,5.62
2018-06-04T12:53:30.561Z,5.57
2018-06-04T12:59:25.574Z,5.65
2018-06-04T13:05:20.605Z,6
2018-06-04T13:11:15.609Z,6.17
2018-06-04T13:17:10.576Z,6.41
2018-06-04T13:23:05.650Z,6.4
2018-06-04T13:29:00.897Z,8.68
2018-06-04T13:34:55.592Z,7.57
2018-06-04T13:40:50.617Z,5.04
2018-06-04T13:46:45.616Z,3.79
2018-06-04T13:52:40.598Z,4.86
2018-06-04T13:58:35.612Z,5.96
2018-06-04T14:04:30.601Z,5.98
2018-06-04T14:10:25.651Z,6.19
2018-06-04T14:16:20.627Z,5.94
2018-06-04T14:22:16.265Z,6.16
2018-06-04T14:28:10.640Z,6.19
2018-06-04T14:34:05.759Z,6.24
2018-06-04T14:40:00.676Z,6.51
2018-06-04T14:45:55.668Z,8.22
2018-06-04T14:51:50.663Z,7.86
2018-06-04T14:57:45.664Z,7.84
2018-06-04T15:03:40.920Z,7.54
2018-06-04T15:09:35.703Z,8.27
2018-06-04T15:15:30.681Z,8.12
2018-06-04T15:21:25.676Z,8.21
2018-06-04T15:27:20.710Z,7.71
2018-06-04T15:33:15.700Z,7.48
2018-06-04T15:39:10.668Z,6.93
2018-06-04T15:45:05.685Z,6.76
2018-06-04T15:51:00.798Z,7.14
2018-06-04T15:56:55.707Z,6.52
2018-06-04T16:02:50.738Z,7
2018-06-04T16:08:45.860Z,5.72
2018-06-04T16:14:40.704Z,6.4
2018-06-04T16:20:35.700Z,7.03
2018-06-04T16:26:30.723Z,7.11
2018-06-04T16:32:25.729Z,6.51
2018-06-04T16:38:20.753Z,6.42
2018-06-04T16:44:15.764Z,6.46
2018-06-04T16:50:10.792Z,6.4
2018-06-04T16:56:05.753Z,6.41
2018-06-04T17:02:00.720Z,6.71
2018-06-04T17:07:55.730Z,6.43
2018-06-04T17:13:50.884Z,6.6
2018-06-04T17:19:45.782Z,7.49
2018-06-04T17:25:40.770Z,5.93
2018-06-04T17:31:35.797Z,5.31
2018-06-04T17:37:30.790Z,5.1
2018-06-04T17:43:25.836Z,4.38
2018-06-04T17:49:20.758Z,4.55
2018-06-04T17:55:15.762Z,4.61
2018-06-04T18:01:10.836Z,4.62
2018-06-04T18:07:05.791Z,4.28
2018-06-04T18:13:00.795Z,4.47
2018-06-04T18:18:55.783Z,3.73
2018-06-04T18:24:50.805Z,4.18
2018-06-04T18:30:45.889Z,4.3
2018-06-04T18:36:40.827Z,4.23
2018-06-04T18:42:35.811Z,4.32
2018-06-04T18:48:30.815Z,3.78
2018-06-04T18:54:25.796Z,3.93
2018-06-04T19:00:21.073Z,3.23
2018-06-04T19:06:15.811Z,3.77
2018-06-04T19:12:10.895Z,3.81
2018-06-04T19:18:06.177Z,3.06
2018-06-04T19:24:00.851Z,3.38
2018-06-04T19:29:55.904Z,3.2
2018-06-04T19:35:50.836Z,3.45
2018-06-04T19:41:45.854Z,3.38
2018-06-04T19:47:41.083Z,3.33
2018-06-04T19:53:35.876Z,3.04
2018-06-04T19:59:30.867Z,3.52
2018-06-04T20:05:26.317Z,3.65
2018-06-04T20:11:20.894Z,3.6
2018-06-04T20:17:15.948Z,2.91
2018-06-04T20:23:10.871Z,2.77
2018-06-04T20:29:05.932Z,2.93
2018-06-04T20:35:00.916Z,3.19
2018-06-04T20:40:55.937Z,2.8
2018-06-04T20:46:51.261Z,3.04
2018-06-04T20:52:46.004Z,3.08
2018-06-04T20:58:40.946Z,3.27
2018-06-04T21:04:36.128Z,3.18
2018-06-04T21:10:31.044Z,3.52
2018-06-04T21:16:26.003Z,2.79
2018-06-04T21:22:20.957Z,3.49
2018-06-04T21:28:15.910Z,3.12
2018-06-04T21:34:10.940Z,2.98
2018-06-04T21:40:05.943Z,3.07
2018-06-04T21:46:01.059Z,2.92
2018-06-04T21:51:55.914Z,3.91
2018-06-04T21:57:50.925Z,3.2
2018-06-04T22:03:46.210Z,3.14
2018-06-04T22:09:40.916Z,3.1
2018-06-04T22:15:35.987Z,3.04
2018-06-04T22:21:30.950Z,3.51
2018-06-04T22:27:25.966Z,2.71
2018-06-04T22:33:21.013Z,2.93
2018-06-04T22:39:15.941Z,2.93
2018-06-04T22:45:10.976Z,3.06
2018-06-04T22:51:06.018Z,2.88
2018-06-04T22:57:00.963Z,2.93
2018-06-04T23:02:56.049Z,2.54
2018-06-04T23:08:51.099Z,2.91
2018-06-04T23:14:45.994Z,3.16
2018-06-04T23:20:41.010Z,2.9
2018-06-04T23:26:36.065Z,2.78
2018-06-04T23:32:31.079Z,3.24
2018-06-04T23:38:25.996Z,3.11
2018-06-04T23:44:21.060Z,2.71
2018-06-04T23:50:16.162Z,2.88
2018-06-04T23:56:11.005Z,3.19
